Time;durP1;ratioP1;P1;durP2;ratioP2;P2;SDS_P1;SDS_P2;PMS_P1;PMS_P2;Temp;Humidity;BMP_temperature;BMP_pressure;BME280_temperature;BME280_humidity;BME280_pressure;Samples;Min_cycle;Max_cycle;Signal;HPM_P1;HPM_P2
2021/03/11 00:00:14;;;;;;;14.73;12.93;;;7.80;99.90;;;;;;4993018;28;20190;-66
2021/03/11 00:02:40;;;;;;;17.67;12.50;;;7.80;99.90;;;;;;4993468;28;20180;-67
2021/03/11 00:05:09;;;;;;;16.03;11.97;;;7.80;99.90;;;;;;4992444;28;20427;-67
2021/03/11 00:07:35;;;;;;;15.97;12.20;;;7.80;99.90;;;;;;4993544;28;20485;-66
2021/03/11 00:10:02;;;;;;;13.50;11.47;;;7.80;99.90;;;;;;4992648;28;20431;-66
2021/03/11 00:12:27;;;;;;;15.63;13.40;;;7.80;99.90;;;;;;4993021;28;20437;-66
2021/03/11 00:14:52;;;;;;;13.87;12.37;;;7.80;99.90;;;;;;4992798;28;21009;-66
2021/03/11 00:17:18;;;;;;;16.80;12.87;;;7.80;99.90;;;;;;4992447;28;20271;-66
2021/03/11 00:19:44;;;;;;;15.77;12.30;;;7.80;99.90;;;;;;4993032;28;20183;-66
2021/03/11 00:22:10;;;;;;;15.97;11.40;;;7.80;99.90;;;;;;4992494;28;20203;-66
2021/03/11 00:24:36;;;;;;;14.53;12.90;;;7.80;99.90;;;;;;4992741;28;20431;-66
2021/03/11 00:27:02;;;;;;;17.10;12.37;;;7.80;99.90;;;;;;4992141;28;20426;-66
2021/03/11 00:29:28;;;;;;;15.00;12.83;;;7.90;99.90;;;;;;4992381;28;20566;-66
2021/03/11 00:31:54;;;;;;;14.43;11.10;;;7.90;99.90;;;;;;4992497;28;20494;-66
2021/03/11 00:34:20;;;;;;;14.80;13.20;;;7.90;99.90;;;;;;4991564;28;20433;-66
2021/03/11 00:36:46;;;;;;;16.90;12.70;;;7.90;99.90;;;;;;4992386;28;20423;-66
2021/03/11 00:39:12;;;;;;;14.80;11.80;;;7.90;99.90;;;;;;4992605;28;20209;-66
2021/03/11 00:41:37;;;;;;;16.50;11.43;;;8.00;99.90;;;;;;4991976;28;20204;-67
2021/03/11 00:44:03;;;;;;;12.70;11.27;;;8.00;99.90;;;;;;4989481;28;20665;-66
2021/03/11 00:46:28;;;;;;;15.47;11.17;;;8.00;99.90;;;;;;4992528;28;20198;-66
2021/03/11 00:48:54;;;;;;;15.40;12.60;;;7.90;99.90;;;;;;4992539;28;20214;-66
2021/03/11 00:51:20;;;;;;;16.00;13.77;;;7.90;99.90;;;;;;4992283;28;20207;-66
2021/03/11 00:53:45;;;;;;;13.60;11.80;;;7.90;99.90;;;;;;4991976;28;20187;-66
2021/03/11 00:56:11;;;;;;;16.57;12.83;;;7.90;99.90;;;;;;4991891;28;20548;-66
2021/03/11 00:58:36;;;;;;;13.10;11.70;;;7.90;99.90;;;;;;4992018;28;20241;-66
2021/03/11 01:01:02;;;;;;;14.73;11.63;;;8.00;99.90;;;;;;4991920;28;20195;-66
2021/03/11 01:03:28;;;;;;;13.57;12.00;;;8.00;99.90;;;;;;4991685;28;20523;-66
2021/03/11 01:05:54;;;;;;;18.33;12.50;;;7.90;99.90;;;;;;4991966;28;20501;-66
2021/03/11 01:08:19;;;;;;;14.20;12.73;;;7.90;99.90;;;;;;4991696;28;20194;-66
2021/03/11 01:10:45;;;;;;;14.90;12.60;;;7.90;99.90;;;;;;4991907;28;20212;-66
2021/03/11 01:13:10;;;;;;;14.53;11.87;;;8.00;99.90;;;;;;4992287;28;20191;-66
2021/03/11 01:15:41;;;;;;;13.60;12.13;;;8.00;99.90;;;;;;4991577;28;20318;-66
2021/03/11 01:18:09;;;;;;;13.03;11.70;;;8.00;99.90;;;;;;4991471;28;21046;-66
2021/03/11 01:20:35;;;;;;;14.73;11.87;;;8.00;99.90;;;;;;4991781;28;20952;-66
2021/03/11 01:23:01;;;;;;;13.60;11.90;;;7.90;99.90;;;;;;4991776;28;20430;-66
2021/03/11 01:25:26;;;;;;;13.73;11.60;;;7.90;99.90;;;;;;4991333;28;20199;-66
2021/03/11 01:27:52;;;;;;;12.60;11.00;;;7.90;99.90;;;;;;4991719;28;20172;-67
2021/03/11 01:30:18;;;;;;;14.70;11.40;;;7.90;99.90;;;;;;4990987;28;20593;-66
2021/03/11 01:32:44;;;;;;;14.40;11.47;;;7.90;99.90;;;;;;4991860;28;20179;-66
2021/03/11 01:35:10;;;;;;;16.27;11.07;;;7.90;99.90;;;;;;4991502;28;20431;-66
2021/03/11 01:37:36;;;;;;;10.60;9.03;;;8.00;99.90;;;;;;4991166;28;20237;-66
2021/03/11 01:40:02;;;;;;;13.60;9.00;;;8.00;99.90;;;;;;4991593;28;20450;-66
2021/03/11 01:42:28;;;;;;;9.63;8.10;;;8.00;99.90;;;;;;4989869;28;20179;-67
2021/03/11 01:44:54;;;;;;;10.03;7.93;;;8.00;99.90;;;;;;4991046;28;20504;-66
2021/03/11 01:47:19;;;;;;;10.20;7.83;;;8.10;99.90;;;;;;4991425;28;20176;-67
2021/03/11 01:49:45;;;;;;;8.87;6.97;;;8.10;99.90;;;;;;4991255;28;20182;-66
2021/03/11 01:52:10;;;;;;;9.33;7.40;;;8.10;99.90;;;;;;4991204;28;20204;-67
2021/03/11 01:54:36;;;;;;;7.50;6.40;;;8.10;99.90;;;;;;4989664;28;20176;-67
2021/03/11 01:57:02;;;;;;;8.80;6.03;;;8.10;99.90;;;;;;4991121;28;20183;-67
2021/03/11 01:59:28;;;;;;;11.37;6.00;;;8.10;99.90;;;;;;4990697;28;20591;-66
2021/03/11 02:01:55;;;;;;;7.27;5.77;;;8.10;99.90;;;;;;4991303;28;21026;-67
2021/03/11 02:04:21;;;;;;;8.60;6.13;;;8.10;99.90;;;;;;4990502;28;20441;-67
2021/03/11 02:06:46;;;;;;;6.47;5.00;;;8.10;99.90;;;;;;4991199;28;20445;-67
2021/03/11 02:09:12;;;;;;;10.60;5.13;;;8.20;99.90;;;;;;4991145;28;20203;-67
2021/03/11 02:11:44;;;;;;;6.40;4.93;;;8.20;99.90;;;;;;4990684;28;20215;-67
2021/03/11 02:14:16;;;;;;;7.93;5.50;;;8.20;99.90;;;;;;4990346;28;20262;-67
2021/03/11 02:16:52;;;;;;;8.03;5.80;;;8.10;99.90;;;;;;4990631;28;20522;-67
2021/03/11 02:19:39;;;;;;;7.13;5.20;;;8.20;99.90;;;;;;4990887;28;20469;-67
2021/03/11 02:22:43;;;;;;;8.63;6.97;;;8.10;99.90;;;;;;4998797;28;20448;-67
2021/03/11 02:25:33;;;;;;;8.97;6.13;;;8.10;99.90;;;;;;4990357;28;20843;-66
2021/03/11 02:28:23;;;;;;;6.57;5.07;;;8.10;99.90;;;;;;4981401;28;20552;-66
2021/03/11 02:30:49;;;;;;;6.60;5.87;;;8.10;99.90;;;;;;4990374;28;20465;-67
2021/03/11 02:33:16;;;;;;;7.00;6.30;;;8.10;99.90;;;;;;4990235;28;20518;-67
2021/03/11 02:35:42;;;;;;;11.23;5.73;;;8.10;99.90;;;;;;4990364;28;20238;-67
2021/03/11 02:38:12;;;;;;;6.90;6.00;;;8.10;99.90;;;;;;4989997;28;20469;-66
2021/03/11 02:40:39;;;;;;;7.83;6.07;;;8.00;99.90;;;;;;4990547;28;20458;-66
2021/03/11 02:43:10;;;;;;;7.80;5.17;;;8.00;99.90;;;;;;4991122;28;20948;-67
2021/03/11 02:45:37;;;;;;;7.27;5.17;;;8.00;99.90;;;;;;4990454;28;20518;-66
2021/03/11 02:48:06;;;;;;;7.10;5.87;;;8.00;99.90;;;;;;4990576;28;20434;-67
2021/03/11 02:50:32;;;;;;;6.37;5.77;;;8.00;99.90;;;;;;4990322;28;20459;-67
2021/03/11 02:53:00;;;;;;;7.57;6.53;;;8.00;99.90;;;;;;4989877;28;20489;-67
2021/03/11 02:55:29;;;;;;;8.27;7.47;;;8.00;99.90;;;;;;4989824;28;20518;-67
2021/03/11 02:57:56;;;;;;;8.73;7.03;;;8.00;99.90;;;;;;4990217;28;20454;-67
2021/03/11 03:00:24;;;;;;;8.83;6.30;;;8.10;99.90;;;;;;4990291;28;20446;-67
2021/03/11 03:02:52;;;;;;;7.50;6.70;;;8.10;99.90;;;;;;4990440;28;20437;-67
2021/03/11 03:05:21;;;;;;;11.07;7.57;;;8.00;99.90;;;;;;4990486;28;20437;-67
2021/03/11 03:07:48;;;;;;;8.43;7.63;;;8.00;99.90;;;;;;4991224;28;20956;-66
2021/03/11 03:10:20;;;;;;;7.67;6.83;;;8.10;99.90;;;;;;4994104;28;20490;-67
2021/03/11 03:12:49;;;;;;;7.57;6.67;;;8.00;99.90;;;;;;5009055;28;20470;-67
2021/03/11 03:15:15;;;;;;;10.60;6.63;;;8.00;99.90;;;;;;4993785;28;20438;-67
2021/03/11 03:17:46;;;;;;;10.33;7.20;;;8.00;99.90;;;;;;4993597;28;20614;-67
2021/03/11 03:20:13;;;;;;;9.80;7.37;;;8.00;99.90;;;;;;4994387;28;20484;-67
2021/03/11 03:22:39;;;;;;;8.87;6.70;;;8.00;99.90;;;;;;4993605;28;20433;-67
2021/03/11 03:25:13;;;;;;;9.37;7.07;;;8.00;99.90;;;;;;4993047;28;20441;-67
2021/03/11 03:27:39;;;;;;;8.40;7.30;;;8.00;99.90;;;;;;4983811;28;20433;-67
2021/03/11 03:30:12;;;;;;;7.27;6.53;;;7.90;99.90;;;;;;4993670;28;20710;-67
2021/03/11 03:32:37;;;;;;;8.00;6.43;;;7.80;99.90;;;;;;4993764;28;20909;-67
2021/03/11 03:35:06;;;;;;;7.60;6.63;;;7.70;99.90;;;;;;4993535;28;20438;-67
2021/03/11 03:37:33;;;;;;;8.90;6.67;;;7.70;99.90;;;;;;4993757;28;20180;-67
2021/03/11 03:39:58;;;;;;;7.27;6.57;;;7.70;99.90;;;;;;4993552;28;20454;-67
2021/03/11 03:42:27;;;;;;;9.20;6.77;;;7.70;99.90;;;;;;4993188;28;20423;-67
2021/03/11 03:44:55;;;;;;;6.10;5.53;;;7.80;99.90;;;;;;4993507;28;20182;-67
2021/03/11 03:47:21;;;;;;;8.23;6.87;;;7.80;99.90;;;;;;4993585;28;20434;-67
2021/03/11 03:49:47;;;;;;;8.13;5.70;;;7.90;99.90;;;;;;4993591;28;20488;-67
2021/03/11 03:52:13;;;;;;;7.27;5.30;;;8.10;99.90;;;;;;4992274;28;20178;-67
2021/03/11 03:54:41;;;;;;;6.60;5.37;;;8.20;99.90;;;;;;4992688;28;20207;-66
2021/03/11 03:57:23;;;;;;;6.23;5.40;;;8.20;99.90;;;;;;4993331;28;20439;-67
2021/03/11 03:59:51;;;;;;;6.90;5.30;;;8.30;99.90;;;;;;4993050;28;20437;-67
2021/03/11 04:02:18;;;;;;;5.53;5.03;;;8.40;99.90;;;;;;4993068;28;20449;-66
2021/03/11 04:04:49;;;;;;;8.10;4.73;;;8.60;99.90;;;;;;4978932;28;20422;-66
2021/03/11 04:07:19;;;;;;;6.93;4.80;;;8.70;99.90;;;;;;4993079;28;20802;-66
2021/03/11 04:09:46;;;;;;;14.30;5.03;;;8.90;99.90;;;;;;4993220;28;20462;-66
2021/03/11 04:12:15;;;;;;;6.10;5.00;;;9.00;99.90;;;;;;4992844;28;20513;-66
2021/03/11 04:14:41;;;;;;;6.03;4.43;;;9.10;99.90;;;;;;4991875;28;20435;-66
2021/03/11 04:17:08;;;;;;;7.93;4.80;;;9.10;99.90;;;;;;4992705;28;20935;-66
2021/03/11 04:19:35;;;;;;;5.60;4.50;;;9.10;99.90;;;;;;4992298;28;20470;-66
2021/03/11 04:22:02;;;;;;;5.97;4.70;;;9.20;99.90;;;;;;4992384;28;20446;-66
2021/03/11 04:24:29;;;;;;;10.13;4.40;;;9.20;99.90;;;;;;4992183;28;20557;-66
2021/03/11 04:26:54;;;;;;;5.00;4.50;;;9.20;99.90;;;;;;4992713;28;20955;-66
2021/03/11 04:29:20;;;;;;;4.17;3.77;;;9.20;99.90;;;;;;4993102;28;20446;-66
2021/03/11 04:31:47;;;;;;;4.43;4.00;;;9.20;99.90;;;;;;4992912;28;20570;-66
2021/03/11 04:34:12;;;;;;;5.10;4.17;;;9.30;99.90;;;;;;4992424;28;20187;-66
2021/03/11 04:36:39;;;;;;;5.13;4.23;;;9.30;99.90;;;;;;4992408;28;20434;-66
2021/03/11 04:39:05;;;;;;;5.77;4.40;;;9.30;99.90;;;;;;4992742;28;20226;-66
2021/03/11 04:41:31;;;;;;;6.00;4.20;;;9.30;99.90;;;;;;4992556;28;20532;-66
2021/03/11 04:44:01;;;;;;;5.23;3.57;;;9.30;99.90;;;;;;4992464;28;20435;-66
2021/03/11 04:46:27;;;;;;;6.23;4.37;;;9.30;99.90;;;;;;4992998;28;20435;-66
2021/03/11 04:48:54;;;;;;;4.43;4.00;;;9.30;99.90;;;;;;4992171;28;20438;-66
2021/03/11 04:51:20;;;;;;;8.93;4.60;;;9.30;99.90;;;;;;4980588;28;20458;-66
2021/03/11 04:53:46;;;;;;;5.53;4.20;;;9.30;99.90;;;;;;4992335;28;20525;-67
2021/03/11 04:56:12;;;;;;;5.60;4.57;;;9.30;99.90;;;;;;4992059;28;20187;-67
2021/03/11 04:58:39;;;;;;;5.87;3.90;;;9.30;99.90;;;;;;4992111;28;20466;-67
2021/03/11 05:01:12;;;;;;;5.50;4.07;;;9.30;99.90;;;;;;4990603;28;20685;-66
2021/03/11 05:03:42;;;;;;;5.40;4.23;;;9.30;99.90;;;;;;4991691;28;20431;-67
2021/03/11 05:06:08;;;;;;;6.73;3.60;;;9.30;99.90;;;;;;4992484;28;20434;-66
2021/03/11 05:08:34;;;;;;;5.03;4.50;;;9.30;99.90;;;;;;4991906;28;20525;-66
2021/03/11 05:10:59;;;;;;;4.00;3.60;;;9.30;99.90;;;;;;4992048;28;20486;-67
2021/03/11 05:13:30;;;;;;;6.77;4.30;;;9.30;99.90;;;;;;4991548;28;20394;-67
2021/03/11 05:15:56;;;;;;;5.27;4.37;;;9.30;99.90;;;;;;4992127;28;20270;-67
2021/03/11 05:18:21;;;;;;;4.27;3.87;;;9.40;99.90;;;;;;4991732;28;20522;-66
2021/03/11 05:20:47;;;;;;;4.37;3.13;;;9.40;99.90;;;;;;4991946;28;20807;-66
2021/03/11 05:23:12;;;;;;;5.77;3.50;;;9.40;99.90;;;;;;4991853;28;20171;-67
2021/03/11 05:25:38;;;;;;;4.20;3.80;;;9.30;99.90;;;;;;4991430;28;20178;-66
2021/03/11 05:28:03;;;;;;;6.53;3.83;;;9.40;99.90;;;;;;4991996;28;20203;-66
2021/03/11 05:30:29;;;;;;;5.67;4.40;;;9.40;99.90;;;;;;4991177;28;20289;-66
2021/03/11 05:32:55;;;;;;;4.30;3.90;;;9.30;99.90;;;;;;4992092;28;20179;-66
2021/03/11 05:35:20;;;;;;;4.77;3.40;;;9.30;99.90;;;;;;4991849;28;20175;-66
2021/03/11 05:37:46;;;;;;;7.63;3.60;;;9.30;99.90;;;;;;4991913;28;20566;-66
2021/03/11 05:40:12;;;;;;;7.63;4.13;;;9.30;99.90;;;;;;4991402;28;20289;-66
2021/03/11 05:42:39;;;;;;;6.07;4.57;;;9.30;99.90;;;;;;4990294;28;20172;-66
2021/03/11 05:45:06;;;;;;;6.67;4.53;;;9.30;99.90;;;;;;4991167;28;20430;-67
2021/03/11 05:47:33;;;;;;;5.63;3.50;;;9.30;99.90;;;;;;4991450;28;21011;-66
2021/03/11 05:50:00;;;;;;;5.20;3.80;;;9.20;99.90;;;;;;4991338;28;20506;-67
2021/03/11 05:52:28;;;;;;;6.20;3.80;;;9.20;99.90;;;;;;4990771;28;20454;-67
2021/03/11 05:54:54;;;;;;;6.83;4.20;;;9.20;99.90;;;;;;4990986;28;20946;-67
2021/03/11 05:57:20;;;;;;;8.10;3.90;;;9.20;99.90;;;;;;4991201;28;20773;-67
2021/03/11 05:59:45;;;;;;;5.07;4.57;;;9.20;99.90;;;;;;4990325;28;20481;-67
2021/03/11 06:02:11;;;;;;;5.97;3.50;;;9.20;99.90;;;;;;4991181;28;20225;-66
2021/03/11 06:04:39;;;;;;;11.90;3.97;;;9.30;99.90;;;;;;4990856;28;20171;-66
2021/03/11 06:07:08;;;;;;;4.40;3.80;;;9.30;99.90;;;;;;4991286;28;20528;-67
2021/03/11 06:09:34;;;;;;;3.77;3.47;;;9.40;99.90;;;;;;4989740;28;20435;-66
2021/03/11 06:12:01;;;;;;;7.77;4.53;;;9.40;99.90;;;;;;4991016;28;20821;-66
2021/03/11 06:14:32;;;;;;;3.97;3.30;;;9.30;99.90;;;;;;4990744;28;20438;-68
2021/03/11 06:17:02;;;;;;;6.03;3.30;;;9.30;99.90;;;;;;4977087;28;20437;-66
2021/03/11 06:19:28;;;;;;;3.87;3.53;;;9.30;99.90;;;;;;4998393;28;20462;-66
2021/03/11 06:21:53;;;;;;;4.50;3.63;;;9.30;99.90;;;;;;4997594;28;20454;-66
2021/03/11 06:24:21;;;;;;;4.70;3.17;;;9.30;99.90;;;;;;4990771;28;20609;-67
2021/03/11 06:26:47;;;;;;;3.63;3.27;;;9.30;99.90;;;;;;4993294;28;20525;-66
2021/03/11 06:29:14;;;;;;;4.20;3.80;;;9.40;99.90;;;;;;5004493;28;20449;-66
2021/03/11 06:31:39;;;;;;;6.43;3.73;;;9.40;99.90;;;;;;4994984;28;20427;-66
2021/03/11 06:34:19;;;;;;;3.27;2.97;;;9.40;99.90;;;;;;4991148;28;20439;-67
2021/03/11 06:36:45;;;;;;;5.10;3.63;;;9.50;99.90;;;;;;4992248;28;20175;-67
2021/03/11 06:39:28;;;;;;;5.20;3.40;;;9.50;99.90;;;;;;5005344;28;20458;-67
2021/03/11 06:41:55;;;;;;;4.00;3.40;;;9.60;99.90;;;;;;4990809;28;20553;-67
2021/03/11 06:44:37;;;;;;;6.20;3.50;;;9.60;99.90;;;;;;4995349;28;20936;-67
2021/03/11 06:47:06;;;;;;;3.70;2.70;;;9.70;99.90;;;;;;4994283;28;20517;-67
2021/03/11 06:49:32;;;;;;;4.83;2.97;;;9.80;99.90;;;;;;4985726;28;20462;-67
2021/03/11 06:52:14;;;;;;;4.33;3.30;;;9.80;99.90;;;;;;4994396;28;20446;-67
2021/03/11 06:55:05;;;;;;;4.30;2.90;;;9.80;99.90;;;;;;4993791;28;20509;-67
2021/03/11 06:57:36;;;;;;;4.00;3.03;;;9.80;99.90;;;;;;4983287;28;20418;-67
2021/03/11 07:00:10;;;;;;;4.10;3.53;;;9.90;99.90;;;;;;4994090;28;20449;-66
2021/03/11 07:02:47;;;;;;;5.47;4.57;;;9.90;99.90;;;;;;4991311;28;20430;-66
2021/03/11 07:05:13;;;;;;;4.10;3.70;;;9.90;99.90;;;;;;4993828;28;20501;-66
2021/03/11 07:07:39;;;;;;;6.30;3.13;;;9.90;99.90;;;;;;4994012;28;20804;-66
2021/03/11 07:10:05;;;;;;;4.30;3.30;;;10.00;99.90;;;;;;4994235;28;20423;-65
2021/03/11 07:12:59;;;;;;;3.70;3.40;;;10.10;99.90;;;;;;4979684;28;20238;-65
2021/03/11 07:15:28;;;;;;;3.20;2.63;;;10.10;99.90;;;;;;4991156;28;20791;-66
2021/03/11 07:17:55;;;;;;;3.80;2.87;;;10.20;99.90;;;;;;4994001;28;20979;-66
2021/03/11 07:20:26;;;;;;;2.97;2.77;;;10.30;99.90;;;;;;4993960;28;20538;-66
2021/03/11 07:23:20;;;;;;;6.80;3.10;;;10.30;99.90;;;;;;4993743;28;20426;-65
2021/03/11 07:25:47;;;;;;;3.27;2.60;;;10.40;99.90;;;;;;4990201;28;20435;-65
2021/03/11 07:28:25;;;;;;;2.80;2.60;;;10.50;99.90;;;;;;4992887;28;20450;-65
2021/03/11 07:30:55;;;;;;;3.10;2.47;;;10.50;99.90;;;;;;4987239;28;20830;-65
2021/03/11 07:33:26;;;;;;;6.03;3.67;;;10.50;99.90;;;;;;4993020;28;20525;-65
2021/03/11 07:35:58;;;;;;;4.60;2.43;;;10.60;99.90;;;;;;4993050;28;20438;-64
2021/03/11 07:38:25;;;;;;;4.10;2.17;;;10.60;99.90;;;;;;4993373;28;20560;-65
2021/03/11 07:40:53;;;;;;;4.03;2.83;;;10.60;99.90;;;;;;4990600;28;20984;-64
2021/03/11 07:43:20;;;;;;;3.10;2.20;;;10.70;99.90;;;;;;4985644;28;20509;-64
2021/03/11 07:45:45;;;;;;;2.83;2.63;;;10.70;99.90;;;;;;4993684;28;20441;-65
2021/03/11 07:48:12;;;;;;;2.27;2.10;;;10.80;99.90;;;;;;4993668;28;20928;-64
2021/03/11 07:50:43;;;;;;;2.30;1.80;;;10.80;99.90;;;;;;4993019;28;20607;-64
2021/03/11 07:53:09;;;;;;;2.63;1.80;;;10.90;99.90;;;;;;4992708;28;20481;-65
2021/03/11 07:55:35;;;;;;;3.03;1.87;;;10.90;99.90;;;;;;4990540;28;20485;-65
2021/03/11 07:58:06;;;;;;;4.30;3.03;;;10.90;99.90;;;;;;4992969;28;20207;-65
2021/03/11 08:00:33;;;;;;;3.07;2.70;;;10.90;99.90;;;;;;4992635;28;20538;-65
2021/03/11 08:03:10;;;;;;;3.60;2.53;;;11.00;99.90;;;;;;4993286;28;20434;-65
2021/03/11 08:05:36;;;;;;;4.07;2.80;;;11.00;99.90;;;;;;4992662;28;20427;-65
2021/03/11 08:08:28;;;;;;;3.37;2.63;;;11.10;99.90;;;;;;4992876;28;20867;-65
2021/03/11 08:10:59;;;;;;;3.37;2.33;;;11.10;99.90;;;;;;4986944;28;20481;-65
2021/03/11 08:13:38;;;;;;;3.70;2.40;;;11.20;99.90;;;;;;4992665;28;20541;-65
2021/03/11 08:16:10;;;;;;;3.70;2.53;;;11.30;99.90;;;;;;4992030;28;20438;-65
2021/03/11 08:18:35;;;;;;;2.23;1.90;;;11.40;99.90;;;;;;4992863;28;20458;-65
2021/03/11 08:21:25;;;;;;;3.20;2.47;;;11.40;99.90;;;;;;4992208;28;20887;-65
2021/03/11 08:23:55;;;;;;;2.40;1.90;;;11.60;99.90;;;;;;5004284;28;20172;-65
2021/03/11 08:26:43;;;;;;;2.30;2.10;;;11.70;99.90;;;;;;4991964;28;20442;-66
2021/03/11 08:29:15;;;;;;;2.50;2.30;;;11.80;99.90;;;;;;4986930;28;20427;-65
2021/03/11 08:31:41;;;;;;;4.87;2.53;;;11.80;99.90;;;;;;4992727;28;20512;-65
2021/03/11 08:34:06;;;;;;;4.03;2.30;;;11.90;99.90;;;;;;4992249;28;21011;-65
2021/03/11 08:36:36;;;;;;;6.73;2.57;;;11.90;99.90;;;;;;4992482;28;20185;-65
2021/03/11 08:39:03;;;;;;;4.80;3.17;;;11.90;99.90;;;;;;4992375;28;20206;-65
2021/03/11 08:41:32;;;;;;;2.80;2.20;;;12.00;99.90;;;;;;4992795;28;20478;-65
2021/03/11 08:43:59;;;;;;;2.70;2.37;;;12.10;99.90;;;;;;4991938;28;20426;-65
2021/03/11 08:46:50;;;;;;;2.23;2.03;;;12.30;99.90;;;;;;4992564;28;20964;-66
2021/03/11 08:49:36;;;;;;;2.50;1.70;;;12.30;99.90;;;;;;4992404;28;20797;-65
2021/03/11 08:52:02;;;;;;;1.83;1.73;;;12.30;99.90;;;;;;4992032;28;20565;-66
2021/03/11 08:54:28;;;;;;;2.87;1.90;;;12.20;99.90;;;;;;4992119;28;20526;-65
2021/03/11 08:56:54;;;;;;;2.10;1.60;;;12.30;99.90;;;;;;4992445;28;20517;-65
2021/03/11 08:59:19;;;;;;;3.70;2.30;;;12.40;99.90;;;;;;4991823;28;20217;-65
2021/03/11 09:01:49;;;;;;;3.13;2.20;;;12.50;99.90;;;;;;4990917;28;20208;-65
2021/03/11 09:04:21;;;;;;;2.73;2.07;;;12.60;99.90;;;;;;4991606;28;20186;-66
2021/03/11 09:06:52;;;;;;;1.60;1.50;;;13.00;99.90;;;;;;4991340;28;20423;-65
2021/03/11 09:09:38;;;;;;;7.90;2.10;;;13.10;99.90;;;;;;4991586;28;20956;-65
2021/03/11 09:12:14;;;;;;;2.37;2.17;;;13.00;99.90;;;;;;4990632;28;20462;-65
2021/03/11 09:14:47;;;;;;;1.60;1.50;;;13.20;99.90;;;;;;4991639;28;20811;-65
2021/03/11 09:17:18;;;;;;;1.53;1.43;;;13.20;99.90;;;;;;4990958;28;20434;-65
2021/03/11 09:19:49;;;;;;;2.20;1.77;;;13.20;99.90;;;;;;4991575;28;21027;-65
2021/03/11 09:22:19;;;;;;;2.27;1.60;;;13.30;99.90;;;;;;4990855;28;20435;-66
2021/03/11 09:24:57;;;;;;;2.50;1.77;;;13.20;99.90;;;;;;4984830;28;20485;-66
2021/03/11 09:27:24;;;;;;;2.50;1.73;;;13.20;99.90;;;;;;4991655;28;20644;-65
2021/03/11 09:29:50;;;;;;;2.00;1.37;;;13.20;99.90;;;;;;4990868;28;21007;-66
2021/03/11 09:32:16;;;;;;;2.70;2.20;;;13.20;99.90;;;;;;4991313;28;20444;-65
2021/03/11 09:34:57;;;;;;;1.83;1.63;;;13.20;99.90;;;;;;4991278;28;20439;-65
2021/03/11 09:37:55;;;;;;;3.20;1.80;;;13.20;99.90;;;;;;4991418;28;20791;-65
2021/03/11 09:40:36;;;;;;;1.77;1.67;;;13.20;99.90;;;;;;4980267;28;21012;-65
2021/03/11 09:43:07;;;;;;;1.63;1.53;;;13.20;99.90;;;;;;4991177;28;20840;-65
2021/03/11 09:45:33;;;;;;;2.40;1.50;;;13.30;99.90;;;;;;4990506;28;20936;-65
2021/03/11 09:48:07;;;;;;;1.90;1.70;;;13.40;99.90;;;;;;4990847;28;20423;-65
2021/03/11 09:50:34;;;;;;;2.03;1.93;;;13.60;99.90;;;;;;4991222;28;20872;-65
2021/03/11 09:53:01;;;;;;;1.83;1.37;;;13.80;99.90;;;;;;4991204;28;20460;-65
2021/03/11 09:55:27;;;;;;;2.23;2.13;;;13.90;99.90;;;;;;4990576;28;20492;-65
2021/03/11 09:57:53;;;;;;;1.73;1.60;;;13.90;99.90;;;;;;4991131;28;20796;-65
2021/03/11 10:00:19;;;;;;;2.00;1.90;;;13.90;99.90;;;;;;4991162;28;20463;-65
2021/03/11 10:02:46;;;;;;;1.70;1.60;;;13.80;99.90;;;;;;4990831;28;20175;-65
2021/03/11 10:05:12;;;;;;;1.60;1.50;;;13.60;99.90;;;;;;4990224;28;20459;-65
2021/03/11 10:07:38;;;;;;;1.50;1.40;;;13.60;99.90;;;;;;4990666;28;20536;-65
2021/03/11 10:10:13;;;;;;;2.40;1.93;;;13.60;99.90;;;;;;4990567;28;20195;-65
2021/03/11 10:12:42;;;;;;;1.33;1.20;;;13.50;99.90;;;;;;4991329;28;20270;-65
2021/03/11 10:15:10;;;;;;;2.43;1.67;;;13.50;99.90;;;;;;4990025;28;20470;-65
2021/03/11 10:17:36;;;;;;;2.73;2.10;;;13.50;99.90;;;;;;4988878;28;20485;-65
2021/03/11 10:20:26;;;;;;;1.37;1.20;;;13.70;99.90;;;;;;4990829;28;20430;-66
2021/03/11 10:23:12;;;;;;;1.27;1.17;;;14.00;99.90;;;;;;4982802;28;20434;-65
2021/03/11 10:25:38;;;;;;;2.63;1.80;;;14.10;99.90;;;;;;4990444;28;20517;-66
2021/03/11 10:28:03;;;;;;;1.87;1.67;;;14.10;99.90;;;;;;4990228;28;20537;-65
2021/03/11 10:30:30;;;;;;;3.00;1.30;;;14.00;99.90;;;;;;4990422;28;20210;-66
2021/03/11 10:33:02;;;;;;;7.20;1.63;;;14.00;99.90;;;;;;4989700;28;20179;-66
2021/03/11 10:35:30;;;;;;;1.30;1.20;;;14.00;99.90;;;;;;4988750;28;20578;-65
2021/03/11 10:38:12;;;;;;;1.43;1.33;;;13.90;99.90;;;;;;4990669;28;20474;-65
2021/03/11 10:40:38;;;;;;;1.30;1.13;;;13.80;99.90;;;;;;4990298;28;20501;-65
2021/03/11 10:43:24;;;;;;;1.70;1.33;;;13.80;99.90;;;;;;4990409;28;20430;-65
2021/03/11 10:45:49;;;;;;;1.47;1.30;;;13.80;99.90;;;;;;4990414;28;20657;-65
2021/03/11 10:48:15;;;;;;;2.93;1.40;;;13.90;99.90;;;;;;4990286;28;20437;-65
2021/03/11 10:50:47;;;;;;;2.83;1.40;;;14.00;99.90;;;;;;4985439;28;20238;-66
2021/03/11 10:53:13;;;;;;;1.43;1.20;;;14.00;99.90;;;;;;4990261;28;20958;-65
2021/03/11 10:55:42;;;;;;;2.63;1.37;;;14.00;99.90;;;;;;4989919;28;20430;-66
2021/03/11 10:58:19;;;;;;;1.30;1.20;;;13.90;99.90;;;;;;4990216;28;20492;-65
2021/03/11 11:00:45;;;;;;;1.30;1.20;;;13.70;99.90;;;;;;4980182;28;20540;-65
2021/03/11 11:03:10;;;;;;;2.90;1.30;;;13.60;99.90;;;;;;4990466;28;20509;-65
2021/03/11 11:05:36;;;;;;;1.83;1.03;;;13.60;99.90;;;;;;4989842;28;20184;-65
2021/03/11 11:08:01;;;;;;;1.97;1.50;;;13.50;99.90;;;;;;4989687;28;20194;-65
2021/03/11 11:10:30;;;;;;;1.10;1.00;;;13.50;99.90;;;;;;4989780;28;20697;-65
2021/03/11 11:12:56;;;;;;;1.90;1.53;;;13.40;99.90;;;;;;4990122;28;20262;-66
2021/03/11 11:15:23;;;;;;;3.63;1.37;;;12.90;99.90;;;;;;4989696;28;20829;-66
2021/03/11 11:17:48;;;;;;;1.70;1.60;;;12.50;99.90;;;;;;4990079;28;20446;-66
2021/03/11 11:20:16;;;;;;;1.73;1.63;;;12.10;99.90;;;;;;4989912;28;20451;-66
2021/03/11 11:22:43;;;;;;;4.40;1.90;;;11.90;99.90;;;;;;4983550;28;20211;-65
2021/03/11 11:25:10;;;;;;;2.20;1.60;;;11.80;99.90;;;;;;4989317;28;20936;-65
2021/03/11 11:27:35;;;;;;;2.67;1.70;;;11.70;99.90;;;;;;4990335;28;20442;-65
2021/03/11 11:30:04;;;;;;;2.43;1.87;;;11.60;99.90;;;;;;4992690;28;20434;-65
2021/03/11 11:32:29;;;;;;;3.63;1.57;;;11.50;99.90;;;;;;4992888;28;20638;-65
2021/03/11 11:34:55;;;;;;;2.70;1.70;;;11.50;99.90;;;;;;4993435;28;20479;-65
2021/03/11 11:37:20;;;;;;;2.13;1.67;;;11.40;99.90;;;;;;4993378;28;20192;-65
2021/03/11 11:39:49;;;;;;;1.23;1.13;;;11.40;99.90;;;;;;4993206;28;20207;-65
2021/03/11 11:42:14;;;;;;;4.60;1.83;;;11.40;99.90;;;;;;4993411;28;20279;-64
2021/03/11 11:44:40;;;;;;;1.77;1.67;;;11.40;99.90;;;;;;4992552;28;20596;-65
2021/03/11 11:47:07;;;;;;;1.83;1.50;;;11.30;99.90;;;;;;4993056;28;20311;-65
2021/03/11 11:49:32;;;;;;;4.27;1.67;;;11.30;99.90;;;;;;4993541;28;20457;-65
2021/03/11 11:51:59;;;;;;;1.47;1.37;;;11.30;99.90;;;;;;4992739;28;20458;-65
2021/03/11 11:54:25;;;;;;;1.00;0.97;;;11.20;99.90;;;;;;4992706;28;20195;-65
2021/03/11 11:56:51;;;;;;;1.60;1.37;;;11.20;99.90;;;;;;4993616;28;20431;-65
2021/03/11 11:59:16;;;;;;;1.50;1.40;;;11.10;99.90;;;;;;4992912;28;20477;-65
2021/03/11 12:01:42;;;;;;;1.67;1.57;;;11.20;99.90;;;;;;4992814;28;20199;-65
2021/03/11 12:04:07;;;;;;;1.30;1.20;;;11.30;99.90;;;;;;4991812;28;20186;-65
2021/03/11 12:06:33;;;;;;;3.63;2.23;;;11.30;99.90;;;;;;4992788;28;20179;-65
2021/03/11 12:08:59;;;;;;;2.73;1.70;;;11.40;99.90;;;;;;4992752;28;20218;-65
2021/03/11 12:11:24;;;;;;;2.70;1.57;;;11.50;99.90;;;;;;4992885;28;20203;-65
2021/03/11 12:13:50;;;;;;;1.80;1.47;;;11.60;99.90;;;;;;4992756;28;20242;-65
2021/03/11 12:16:15;;;;;;;2.80;1.40;;;11.60;99.90;;;;;;4992566;28;20615;-65
2021/03/11 12:18:41;;;;;;;2.43;1.60;;;11.60;99.90;;;;;;4992761;28;20207;-65
2021/03/11 12:21:06;;;;;;;3.37;1.30;;;11.50;99.90;;;;;;4993100;28;20204;-65
2021/03/11 12:23:32;;;;;;;1.80;1.50;;;11.50;99.90;;;;;;4992250;28;20199;-64
2021/03/11 12:25:59;;;;;;;1.80;1.50;;;11.60;99.90;;;;;;4992799;28;20218;-65
2021/03/11 12:28:26;;;;;;;2.97;1.20;;;11.60;99.90;;;;;;4993457;28;20211;-65
2021/03/11 12:30:52;;;;;;;2.23;2.03;;;11.70;99.90;;;;;;4992848;28;20469;-65
2021/03/11 12:33:17;;;;;;;2.53;1.23;;;11.80;99.90;;;;;;4992612;28;20443;-65
2021/03/11 12:35:43;;;;;;;1.30;1.20;;;11.90;99.90;;;;;;4993098;28;20220;-65
2021/03/11 12:38:08;;;;;;;1.00;1.00;;;12.20;99.90;;;;;;4992739;28;20294;-65
2021/03/11 12:40:34;;;;;;;1.10;1.00;;;12.40;99.90;;;;;;4991842;28;20272;-65
2021/03/11 12:42:59;;;;;;;1.50;1.37;;;12.60;99.90;;;;;;4993528;28;20202;-65
2021/03/11 12:45:25;;;;;;;1.17;1.07;;;12.70;99.90;;;;;;4991959;28;20263;-65
2021/03/11 12:47:51;;;;;;;2.10;1.20;;;12.80;99.90;;;;;;4992050;28;20179;-65
2021/03/11 12:50:18;;;;;;;1.50;1.40;;;13.00;99.90;;;;;;4989051;28;20281;-65
2021/03/11 12:52:44;;;;;;;1.60;1.50;;;13.00;99.90;;;;;;4993007;28;20557;-65
2021/03/11 12:55:10;;;;;;;2.23;1.50;;;13.20;99.90;;;;;;4992192;28;20466;-65
2021/03/11 12:57:35;;;;;;;2.10;1.17;;;13.60;99.90;;;;;;4992174;28;20550;-65